Terminal Aerodrome Forecast
Issued by NWS Cleveland, OH

Home | Current Version | Previous Version | Text Only | Print | Product List | Glossary On
Versions: 1 2 3 4 5 6 7 8 9 10 11 12 13 14
000
FTUS41 KCLE 290539
TAFYNG
TAF
KYNG 290539Z 2906/3006 11004KT P6SM SKC
     FM291300 14004KT P6SM SCT100
     FM291800 20006KT P6SM SCT040 BKN200
     FM300200 22006KT P6SM SCT060 BKN200=

USA.gov is the U.S. government's official web portal to all federal, state and local government web resources and services.